Time;durP1;ratioP1;P1;durP2;ratioP2;P2;SDS_P1;SDS_P2;PMS_P1;PMS_P2;Temp;Humidity;BMP_temperature;BMP_pressure;BME280_temperature;BME280_humidity;BME280_pressure;Samples;Min_cycle;Max_cycle;Signal;HPM_P1;HPM_P2
2023/09/18 00:02:55;;;;;;;2.42;2.20;;;;;;;18.30;81.43;153296.13;10502579;28;20140;-70
2023/09/18 00:07:57;;;;;;;2.97;2.78;;;;;;;18.39;81.68;153318.19;10504355;28;20044;-70
2023/09/18 00:12:59;;;;;;;3.08;2.78;;;;;;;18.30;82.05;153296.13;10504686;28;20049;-70
2023/09/18 00:18:02;;;;;;;2.83;2.47;;;;;;;18.32;81.91;153300.00;10503559;28;20062;-69
2023/09/18 00:23:04;;;;;;;3.72;3.42;;;;;;;18.33;81.93;153302.63;10503014;28;20514;-69
2023/09/18 00:28:05;;;;;;;2.72;2.53;;;;;;;18.35;82.48;153307.78;10504188;28;20072;-69
2023/09/18 00:33:07;;;;;;;2.38;2.20;;;;;;;18.37;82.13;153312.97;10502689;28;20041;-69
2023/09/18 00:38:09;;;;;;;3.63;2.85;;;;;;;18.43;82.36;153328.56;10501578;28;20059;-69
2023/09/18 00:43:11;;;;;;;3.22;2.70;;;;;;;18.55;82.14;153358.41;10502551;28;20052;-69
2023/09/18 00:48:15;;;;;;;3.00;2.80;;;;;;;18.56;82.12;153361.03;10502332;28;20052;-69
2023/09/18 00:53:20;;;;;;;3.28;2.97;;;;;;;18.47;82.20;153337.69;10503566;28;20123;-70
2023/09/18 00:58:22;;;;;;;2.90;2.65;;;;;;;18.45;82.30;153332.47;10484324;28;20098;-70
2023/09/18 01:03:25;;;;;;;3.85;2.80;;;;;;;18.57;81.66;153363.63;10501343;28;20049;-70
2023/09/18 01:08:27;;;;;;;3.15;2.78;;;;;;;18.45;82.24;153332.47;10499850;28;20041;-69
2023/09/18 01:13:50;;;;;;;3.60;3.30;;;;;;;18.40;82.77;153320.78;10500454;28;20057;-69
2023/09/18 01:18:52;;;;;;;3.50;2.55;;;;;;;18.39;83.47;153318.19;10501435;28;20094;-69
2023/09/18 01:23:54;;;;;;;3.20;2.72;;;;;;;18.33;83.68;153302.63;10499382;28;20127;-70
2023/09/18 01:28:56;;;;;;;3.20;3.00;;;;;;;18.38;83.74;153315.59;10500195;28;20048;-69
2023/09/18 01:33:58;;;;;;;2.97;2.78;;;;;;;18.28;84.13;153289.59;10500707;28;20052;-69
2023/09/18 01:39:01;;;;;;;3.80;3.50;;;;;;;18.24;84.76;153280.56;10483178;28;20049;-70
2023/09/18 01:44:04;;;;;;;3.08;2.88;;;;;;;18.22;85.45;153275.34;10499250;28;20090;-67
2023/09/18 01:49:06;;;;;;;3.20;3.00;;;;;;;18.10;86.54;153245.44;10500403;28;20119;-67
2023/09/18 01:54:09;;;;;;;5.47;3.70;;;;;;;18.20;86.69;153270.16;10499193;28;20072;-67
2023/09/18 01:59:11;;;;;;;5.45;4.32;;;;;;;18.14;86.71;153254.56;10499067;28;20143;-67
2023/09/18 02:04:13;;;;;;;4.03;3.72;;;;;;;18.10;87.77;153245.44;10498052;28;20516;-67
2023/09/18 02:09:35;;;;;;;4.03;3.67;;;;;;;18.09;87.37;153242.88;10497764;28;20499;-67
2023/09/18 02:14:37;;;;;;;3.63;3.33;;;;;;;18.17;86.49;153261.06;10499387;28;20036;-67
2023/09/18 02:19:38;;;;;;;3.70;3.40;;;;;;;18.17;87.71;153261.06;10500590;28;20460;-68
2023/09/18 02:24:40;;;;;;;3.88;3.38;;;;;;;18.12;88.26;153250.69;10497065;28;20040;-67
2023/09/18 02:29:42;;;;;;;4.05;3.75;;;;;;;18.11;88.89;153248.09;10497731;28;20049;-68
2023/09/18 02:34:45;;;;;;;3.65;3.35;;;;;;;18.14;88.74;153255.84;10499213;28;20044;-68
2023/09/18 02:39:46;;;;;;;4.22;3.85;;;;;;;18.11;89.27;153246.81;10499194;28;20043;-68
2023/09/18 02:44:48;;;;;;;3.85;3.55;;;;;;;18.04;89.87;153228.59;10498278;28;20037;-67
2023/09/18 02:49:50;;;;;;;3.88;3.47;;;;;;;18.01;89.99;153220.81;10480636;28;20067;-69
2023/09/18 02:54:52;;;;;;;4.30;4.00;;;;;;;18.10;89.79;153244.16;10496771;28;20051;-69
2023/09/18 02:59:53;;;;;;;3.95;3.67;;;;;;;18.07;89.83;153237.69;10497040;28;20124;-70
2023/09/18 03:04:55;;;;;;;3.95;3.72;;;;;;;17.94;90.92;153202.66;10498919;28;20043;-70
2023/09/18 03:09:58;;;;;;;4.55;4.25;;;;;;;17.84;91.31;153179.31;10497091;28;20135;-69
2023/09/18 03:15:00;;;;;;;4.45;4.15;;;;;;;17.93;91.29;153200.03;10497260;28;20048;-69
2023/09/18 03:20:02;;;;;;;3.60;3.40;;;;;;;17.76;92.78;153158.53;10496625;28;20112;-70
2023/09/18 03:25:05;;;;;;;4.20;3.90;;;;;;;17.68;93.56;153137.69;10497382;28;20412;-70
2023/09/18 03:30:07;;;;;;;4.53;4.00;;;;;;;17.88;92.41;153188.34;10496395;28;20048;-70
2023/09/18 03:35:17;;;;;;;4.13;3.83;;;;;;;17.78;92.43;153162.41;10499504;28;20411;-70
2023/09/18 03:40:22;;;;;;;6.43;4.40;;;;;;;17.81;93.14;153171.50;10504644;28;20052;-69
2023/09/18 03:45:24;;;;;;;5.15;4.85;;;;;;;17.78;93.86;153163.69;10506049;28;20063;-70
2023/09/18 03:50:27;;;;;;;4.70;4.28;;;;;;;17.83;93.51;153175.38;10503921;28;20040;-70
2023/09/18 03:55:29;;;;;;;4.65;4.35;;;;;;;17.75;94.05;153154.59;10503332;28;20040;-70
2023/09/18 04:00:31;;;;;;;4.00;3.70;;;;;;;17.71;94.57;153145.50;10502948;28;20040;-70
2023/09/18 04:05:33;;;;;;;4.95;4.55;;;;;;;17.67;94.48;153135.13;10502714;28;20113;-69
2023/09/18 04:10:35;;;;;;;4.55;4.15;;;;;;;17.67;94.75;153135.13;10504918;28;20070;-70
2023/09/18 04:15:38;;;;;;;6.60;4.53;;;;;;;17.66;94.91;153132.47;10502351;28;20040;-70
2023/09/18 04:20:40;;;;;;;4.53;4.20;;;;;;;17.60;95.32;153118.22;10503690;28;20420;-70
2023/09/18 04:25:41;;;;;;;3.25;3.05;;;;;;;17.56;96.04;153106.53;10502433;28;20044;-70
2023/09/18 04:30:43;;;;;;;2.70;2.50;;;;;;;17.54;96.42;153101.38;10505448;28;20492;-70
2023/09/18 04:35:46;;;;;;;1.70;1.60;;;;;;;17.33;98.21;153048.16;10501621;28;20393;-70
2023/09/18 04:40:48;;;;;;;1.70;1.60;;;;;;;17.28;98.74;153035.19;10501308;28;20462;-69
2023/09/18 04:45:50;;;;;;;1.63;1.52;;;;;;;17.30;98.01;153040.38;10501744;28;20044;-70
2023/09/18 04:50:52;;;;;;;1.50;1.40;;;;;;;17.08;100.00;152984.56;10504003;28;20068;-69
2023/09/18 04:55:55;;;;;;;1.90;1.70;;;;;;;17.00;100.00;152965.16;10500837;28;20041;-70
2023/09/18 05:00:58;;;;;;;1.70;1.60;;;;;;;16.76;100.00;152904.16;10500419;28;20044;-70
2023/09/18 05:06:01;;;;;;;1.40;1.30;;;;;;;16.64;100.00;152874.31;10500463;28;20051;-70
2023/09/18 05:11:03;;;;;;;2.47;1.98;;;;;;;16.64;100.00;152874.31;10502080;28;20045;-70
2023/09/18 05:16:05;;;;;;;1.38;1.27;;;;;;;16.68;100.00;152883.34;10505638;28;20041;-71
2023/09/18 05:21:09;;;;;;;1.92;1.70;;;;;;;16.70;100.00;152888.56;10501595;28;20115;-72
2023/09/18 05:26:11;;;;;;;1.75;1.65;;;;;;;16.70;100.00;152888.56;10501495;28;20032;-70
2023/09/18 05:31:14;;;;;;;1.40;1.30;;;;;;;17.12;100.00;152994.94;10477851;28;20087;-69
2023/09/18 05:36:17;;;;;;;2.22;2.00;;;;;;;17.61;95.54;153120.81;10503266;28;20040;-69
2023/09/18 05:41:19;;;;;;;1.50;1.40;;;;;;;17.72;95.00;153146.78;10502019;28;20404;-70
2023/09/18 05:46:23;;;;;;;1.63;1.30;;;;;;;17.93;93.92;153200.03;10500985;28;20055;-70
2023/09/18 05:51:25;;;;;;;1.55;1.45;;;;;;;18.21;90.96;153271.47;10483680;28;20102;-69
2023/09/18 05:56:27;;;;;;;2.13;1.38;;;;;;;18.29;89.94;153292.25;10500424;28;20044;-69
2023/09/18 06:01:29;;;;;;;1.60;1.50;;;;;;;18.38;89.24;153316.91;10500637;28;20492;-70
2023/09/18 06:06:31;;;;;;;1.33;1.20;;;;;;;18.41;89.40;153324.66;10500357;28;20037;-70
2023/09/18 06:11:32;;;;;;;1.30;1.20;;;;;;;18.52;88.14;153351.94;10499973;28;20041;-72
2023/09/18 06:16:34;;;;;;;1.40;1.30;;;;;;;18.81;86.98;153424.69;10499707;28;20492;-69
2023/09/18 06:21:36;;;;;;;1.60;1.50;;;;;;;18.75;87.91;153409.13;10499420;28;20115;-69
2023/09/18 06:26:38;;;;;;;1.58;1.48;;;;;;;19.10;86.08;153498.75;10498666;28;20068;-69
2023/09/18 06:31:40;;;;;;;1.45;1.35;;;;;;;19.25;85.39;153536.41;10497797;28;20049;-70
2023/09/18 06:36:41;;;;;;;1.25;1.15;;;;;;;19.38;84.77;153571.50;10499837;28;20079;-69
2023/09/18 06:41:43;;;;;;;1.52;1.25;;;;;;;19.34;84.70;153559.81;10501479;28;20097;-69
2023/09/18 06:46:47;;;;;;;1.50;1.30;;;;;;;19.53;83.27;153607.91;10497339;28;20049;-70
2023/09/18 06:51:48;;;;;;;3.15;1.40;;;;;;;19.75;83.44;153663.84;10499051;28;20036;-70
2023/09/18 06:56:50;;;;;;;1.52;1.38;;;;;;;19.90;81.59;153702.81;10497900;28;20144;-69
2023/09/18 07:01:52;;;;;;;1.55;1.42;;;;;;;20.14;80.39;153765.22;10498251;28;20049;-70
2023/09/18 07:06:54;;;;;;;2.03;1.55;;;;;;;20.21;79.10;153780.81;10499768;28;20396;-70
2023/09/18 07:11:56;;;;;;;1.30;1.20;;;;;;;20.26;80.16;153793.81;10505027;28;20514;-69
2023/09/18 07:16:58;;;;;;;1.70;1.60;;;;;;;20.44;79.65;153840.59;10505819;28;20431;-69
2023/09/18 07:22:01;;;;;;;1.60;1.50;;;;;;;20.63;77.72;153890.09;10506144;28;20059;-69
2023/09/18 07:27:03;;;;;;;1.77;1.25;;;;;;;20.71;78.01;153909.56;10499366;28;20560;-69
2023/09/18 07:32:05;;;;;;;1.50;1.40;;;;;;;21.00;76.08;153982.41;10486658;28;20041;-70
2023/09/18 07:37:07;;;;;;;1.60;1.50;;;;;;;21.26;74.60;154050.06;10473580;28;20047;-70
2023/09/18 07:42:08;;;;;;;1.77;1.50;;;;;;;21.35;74.00;154073.53;10506074;28;20123;-69
2023/09/18 07:47:10;;;;;;;1.50;1.40;;;;;;;21.65;72.96;154149.00;10485191;28;20210;-70
2023/09/18 07:52:12;;;;;;;1.40;1.30;;;;;;;21.88;70.63;154207.56;10464777;28;20041;-70
2023/09/18 07:57:15;;;;;;;2.15;1.25;;;;;;;22.06;70.47;154253.09;10464010;28;20044;-69
2023/09/18 08:02:17;;;;;;;1.55;1.45;;;;;;;22.13;70.55;154272.69;10468819;28;20138;-69
2023/09/18 08:07:19;;;;;;;1.95;1.85;;;;;;;22.49;68.24;154363.81;10504312;28;20032;-68
2023/09/18 08:12:21;;;;;;;1.20;1.10;;;;;;;22.54;67.77;154376.81;10505004;28;20078;-69
2023/09/18 08:17:23;;;;;;;1.05;1.00;;;;;;;22.86;67.16;154458.84;10502483;28;20049;-69
2023/09/18 08:22:25;;;;;;;1.20;1.10;;;;;;;23.02;66.11;154497.94;10502168;28;20044;-69
2023/09/18 08:27:26;;;;;;;1.00;1.00;;;;;;;23.35;64.44;154583.94;10503597;28;20037;-69
2023/09/18 08:32:30;;;;;;;1.20;1.10;;;;;;;23.63;61.98;154655.56;10504677;28;20040;-69
2023/09/18 08:37:32;;;;;;;1.30;1.20;;;;;;;23.85;61.94;154711.63;10502671;28;20496;-69
2023/09/18 08:42:36;;;;;;;1.20;1.10;;;;;;;23.99;60.58;154745.53;10503916;28;20044;-69
2023/09/18 08:47:42;;;;;;;1.25;1.15;;;;;;;24.23;59.92;154806.81;10501217;28;20051;-69
2023/09/18 08:52:46;;;;;;;1.40;1.30;;;;;;;24.53;57.93;154883.75;10503007;28;20090;-69
2023/09/18 08:57:49;;;;;;;1.20;0.90;;;;;;;24.66;57.08;154918.97;10502170;28;20079;-70
2023/09/18 09:02:53;;;;;;;1.08;0.98;;;;;;;25.00;55.84;155004.97;10502498;28;20224;-69
2023/09/18 09:07:56;;;;;;;0.98;0.90;;;;;;;25.23;54.45;155062.41;10500157;28;20047;-69
2023/09/18 09:13:00;;;;;;;1.23;1.00;;;;;;;25.41;54.07;155109.34;10501583;28;20044;-68
2023/09/18 09:18:07;;;;;;;1.33;1.23;;;;;;;25.44;53.32;155117.19;10502920;28;20040;-69
2023/09/18 09:23:10;;;;;;;0.73;0.70;;;;;;;25.72;52.17;155187.63;10500932;28;20131;-70
2023/09/18 09:28:12;;;;;;;2.03;1.50;;;;;;;25.76;52.00;155198.06;10500366;28;20522;-69
2023/09/18 09:33:14;;;;;;;1.13;1.02;;;;;;;25.71;52.10;155186.31;10499910;28;20071;-69
2023/09/18 09:38:16;;;;;;;1.10;1.00;;;;;;;25.73;52.05;155191.56;10500860;28;20064;-71
2023/09/18 09:43:19;;;;;;;1.10;0.90;;;;;;;25.79;52.32;155205.94;10500378;28;20052;-70
2023/09/18 09:48:21;;;;;;;1.02;1.00;;;;;;;25.90;50.34;155234.69;10499639;28;20040;-70
2023/09/18 09:53:47;;;;;;;0.77;0.77;;;;;;;25.97;49.73;155251.63;10499346;28;20545;-70
2023/09/18 09:59:10;;;;;;;0.70;0.70;;;;;;;26.32;50.91;155342.94;10500105;28;20083;-69
2023/09/18 10:04:17;;;;;;;0.95;0.85;;;;;;;26.83;49.28;155472.25;10499690;28;20045;-69
2023/09/18 10:09:20;;;;;;;0.80;0.80;;;;;;;27.54;47.29;155655.06;10499473;28;20044;-69
2023/09/18 10:14:31;;;;;;;0.80;0.80;;;;;;;27.70;46.12;155694.25;10499163;28;20052;-70
2023/09/18 10:20:10;;;;;;;1.05;1.00;;;;;;;28.40;45.47;155874.63;10498677;28;20045;-69
2023/09/18 10:25:25;;;;;;;0.80;0.80;;;;;;;29.16;45.30;156070.66;10500257;28;20051;-69
2023/09/18 10:30:29;;;;;;;1.00;0.90;;;;;;;29.71;41.86;156209.34;10499610;28;20075;-69
2023/09/18 10:35:31;;;;;;;1.70;1.60;;;;;;;30.15;41.71;156323.16;10498159;28;20037;-69
2023/09/18 10:40:35;;;;;;;0.70;0.70;;;;;;;30.61;39.89;156442.16;10499533;28;20499;-70
2023/09/18 10:45:38;;;;;;;1.90;1.10;;;;;;;30.26;40.15;156351.91;10505247;28;20040;-70
2023/09/18 10:50:43;;;;;;;1.05;0.88;;;;;;;29.61;43.09;156184.47;10506598;28;20040;-69
2023/09/18 10:55:45;;;;;;;0.75;0.75;;;;;;;29.31;42.85;156108.63;10507234;28;20033;-70
2023/09/18 11:00:47;;;;;;;0.75;0.75;;;;;;;28.78;42.22;155972.63;10506438;28;20076;-70
2023/09/18 11:06:02;;;;;;;0.60;0.60;;;;;;;28.42;41.19;155879.81;10508544;28;20102;-69
2023/09/18 11:11:14;;;;;;;0.55;0.55;;;;;;;28.05;41.60;155785.72;10506625;28;20426;-69
2023/09/18 11:16:28;;;;;;;0.88;0.80;;;;;;;27.76;42.72;155709.94;10506120;28;20079;-69
2023/09/18 11:21:32;;;;;;;0.60;0.60;;;;;;;27.55;41.81;155657.69;10506953;28;20044;-70
2023/09/18 11:26:36;;;;;;;1.00;0.90;;;;;;;27.56;43.11;155660.28;10507651;28;20060;-69
2023/09/18 11:31:41;;;;;;;1.00;0.85;;;;;;;27.59;42.65;155666.84;10505156;28;20436;-69
2023/09/18 11:36:43;;;;;;;0.80;0.80;;;;;;;27.95;43.65;155759.59;10503886;28;20048;-69
2023/09/18 11:41:44;;;;;;;0.85;0.80;;;;;;;28.87;42.08;155996.16;10504931;28;20094;-70
2023/09/18 11:46:52;;;;;;;2.03;0.90;;;;;;;29.69;40.46;156205.38;10505445;28;20037;-70
2023/09/18 11:51:58;;;;;;;0.47;0.47;;;;;;;30.09;39.83;156307.38;10507170;28;20051;-71
2023/09/18 11:57:06;;;;;;;0.73;0.73;;;;;;;30.55;39.75;156426.47;10504528;28;20055;-70
2023/09/18 12:02:20;;;;;;;1.05;0.80;;;;;;;30.88;37.55;156510.25;10505227;28;20044;-70
2023/09/18 12:07:23;;;;;;;0.70;0.70;;;;;;;30.77;37.40;156482.78;10502874;28;20045;-69
2023/09/18 12:12:25;;;;;;;0.80;0.80;;;;;;;30.55;38.74;156426.47;10505155;28;20049;-70
2023/09/18 12:17:28;;;;;;;1.00;0.80;;;;;;;30.56;37.64;156429.09;10502845;28;20559;-70
2023/09/18 12:22:36;;;;;;;0.70;0.70;;;;;;;30.15;38.95;156324.47;10503559;28;20045;-69
2023/09/18 12:27:39;;;;;;;1.60;0.98;;;;;;;29.75;40.23;156221.09;10503408;28;20048;-70
2023/09/18 12:32:42;;;;;;;1.00;1.00;;;;;;;29.83;40.38;156240.69;10502887;28;20045;-70
2023/09/18 12:37:44;;;;;;;1.08;0.80;;;;;;;29.88;40.66;156253.75;10504123;28;20040;-70
2023/09/18 12:42:47;;;;;;;0.70;0.60;;;;;;;29.79;41.56;156231.53;10503730;28;20420;-70
2023/09/18 12:47:49;;;;;;;0.60;0.60;;;;;;;29.89;41.05;156257.72;10503312;28;20036;-70
2023/09/18 12:52:51;;;;;;;0.88;0.88;;;;;;;29.97;40.58;156275.97;10503093;28;20068;-71
2023/09/18 12:57:54;;;;;;;1.02;0.80;;;;;;;29.68;39.81;156201.47;10504478;28;20044;-71
2023/09/18 13:02:55;;;;;;;0.70;0.70;;;;;;;29.39;41.97;156129.50;10502843;28;20048;-71
2023/09/18 13:08:03;;;;;;;1.00;0.80;;;;;;;29.24;41.78;156089.00;10501945;28;20551;-71
2023/09/18 13:13:05;;;;;;;1.55;1.00;;;;;;;28.93;42.65;156010.50;10501043;28;20056;-71
2023/09/18 13:18:13;;;;;;;0.60;0.60;;;;;;;29.04;42.82;156038.00;10503803;28;20072;-71
2023/09/18 13:23:15;;;;;;;1.30;0.90;;;;;;;29.05;41.74;156040.66;10502200;28;20454;-71
2023/09/18 13:28:23;;;;;;;1.05;0.80;;;;;;;29.33;41.70;156113.81;10503484;28;20060;-72
2023/09/18 13:33:25;;;;;;;0.60;0.60;;;;;;;29.24;42.52;156089.00;10484615;28;20048;-70
2023/09/18 13:38:27;;;;;;;1.30;0.88;;;;;;;29.17;43.89;156071.97;10501797;28;20041;-71
2023/09/18 13:43:32;;;;;;;1.10;0.88;;;;;;;29.22;43.22;156085.09;10504542;28;20048;-73
2023/09/18 13:48:34;;;;;;;;;;;;;;;29.22;42.99;156083.75;10502843;28;20043;-71
2023/09/18 13:53:38;;;;;;;0.80;0.80;;;;;;;28.79;45.38;155975.22;10498327;28;20287;-72
2023/09/18 13:58:41;;;;;;;0.60;0.60;;;;;;;28.63;43.45;155934.69;10498470;28;20111;-70
2023/09/18 14:03:45;;;;;;;0.55;0.55;;;;;;;28.35;44.70;155862.84;10504548;28;20049;-71
2023/09/18 14:08:47;;;;;;;0.82;0.60;;;;;;;28.07;44.08;155790.97;10500597;28;20044;-71
2023/09/18 14:13:49;;;;;;;3.80;0.77;;;;;;;28.16;43.91;155814.47;10499197;28;20058;-71
2023/09/18 14:18:51;;;;;;;1.95;1.00;;;;;;;28.10;45.03;155797.47;10500289;28;20447;-71
2023/09/18 14:23:52;;;;;;;1.00;0.65;;;;;;;27.68;46.16;155690.34;10500265;28;20071;-70
2023/09/18 14:28:55;;;;;;;1.52;0.55;;;;;;;27.37;47.03;155610.69;10500810;28;20450;-71
2023/09/18 14:33:57;;;;;;;1.48;0.40;;;;;;;27.38;47.72;155613.28;10499634;28;20037;-71
2023/09/18 14:39:00;;;;;;;11.50;1.80;;;;;;;27.27;48.54;155584.53;10498746;28;20032;-71
2023/09/18 14:44:08;;;;;;;3.33;0.60;;;;;;;27.47;46.20;155636.78;10499764;28;20159;-70
2023/09/18 14:49:10;;;;;;;0.65;0.60;;;;;;;27.33;46.55;155600.22;10499450;28;20467;-70
2023/09/18 14:54:14;;;;;;;1.92;0.85;;;;;;;27.20;47.03;155567.56;10491535;28;20040;-70
2023/09/18 14:59:16;;;;;;;1.70;0.50;;;;;;;27.14;47.49;155551.94;10471178;28;20411;-70
2023/09/18 15:04:33;;;;;;;1.17;0.57;;;;;;;26.98;48.21;155510.09;10491770;28;20462;-70
2023/09/18 15:09:38;;;;;;;0.75;0.75;;;;;;;26.76;49.52;155453.94;10491453;28;20037;-71
2023/09/18 15:14:40;;;;;;;0.40;0.40;;;;;;;26.65;48.15;155426.50;10455330;28;20148;-71
2023/09/18 15:19:42;;;;;;;1.73;0.45;;;;;;;26.45;48.08;155375.63;10459307;28;20037;-71
2023/09/18 15:24:44;;;;;;;0.73;0.30;;;;;;;26.09;48.33;155282.94;10498226;28;20110;-70
2023/09/18 15:29:46;;;;;;;0.30;0.15;;;;;;;25.76;48.57;155199.41;10500160;28;20050;-70
2023/09/18 15:34:48;;;;;;;0.55;0.28;;;;;;;25.53;48.38;155140.66;10506564;28;20056;-70
2023/09/18 15:39:51;;;;;;;0.20;0.10;;;;;;;25.15;48.09;155044.19;10504544;28;20049;-71
2023/09/18 15:44:52;;;;;;;3.85;0.40;;;;;;;25.19;47.14;155051.97;10504209;28;20051;-70
2023/09/18 15:49:54;;;;;;;0.20;0.20;;;;;;;24.98;47.95;154999.78;10506278;28;20466;-70
2023/09/18 15:54:57;;;;;;;0.60;0.22;;;;;;;24.81;49.01;154956.75;10505644;28;20488;-70
2023/09/18 15:59:59;;;;;;;0.70;0.20;;;;;;;24.74;49.75;154937.19;10504777;28;20041;-70
2023/09/18 16:05:05;;;;;;;1.88;0.43;;;;;;;24.55;51.20;154890.25;10503832;28;20045;-70
2023/09/18 16:10:08;;;;;;;1.15;0.40;;;;;;;24.32;53.14;154830.25;10504029;28;20458;-70
2023/09/18 16:15:10;;;;;;;0.45;0.30;;;;;;;24.00;55.28;154749.47;10506757;28;20125;-71
2023/09/18 16:20:12;;;;;;;0.55;0.30;;;;;;;23.80;56.66;154698.63;10505842;28;20115;-71
2023/09/18 16:25:14;;;;;;;0.55;0.30;;;;;;;23.53;57.65;154628.22;10504156;28;20048;-71
2023/09/18 16:30:16;;;;;;;0.93;0.30;;;;;;;23.30;59.43;154570.91;10504522;28;20119;-70
2023/09/18 16:35:18;;;;;;;0.35;0.22;;;;;;;23.11;61.83;154521.44;10504718;28;20037;-71
2023/09/18 16:40:21;;;;;;;0.55;0.30;;;;;;;22.76;65.45;154432.81;10505241;28;20086;-71
2023/09/18 16:45:22;;;;;;;0.35;0.30;;;;;;;22.51;66.92;154369.00;10502085;28;20082;-71
2023/09/18 16:50:24;;;;;;;1.10;0.20;;;;;;;22.38;68.70;154336.44;10503562;28;20423;-71
2023/09/18 16:55:26;;;;;;;1.98;0.40;;;;;;;22.13;74.64;154272.69;10502891;28;20040;-68
2023/09/18 17:00:28;;;;;;;0.38;0.38;;;;;;;21.73;78.03;154169.78;10505925;28;20480;-68
2023/09/18 17:05:30;;;;;;;1.05;0.47;;;;;;;21.58;80.48;154132.06;10503346;28;20045;-68
2023/09/18 17:10:32;;;;;;;0.35;0.30;;;;;;;21.36;81.81;154074.81;10504149;28;20048;-68
2023/09/18 17:15:34;;;;;;;2.83;0.52;;;;;;;21.01;91.46;153985.00;10503218;28;20052;-68
2023/09/18 17:20:36;;;;;;;0.50;0.30;;;;;;;20.79;93.01;153930.38;10504161;28;20059;-68
2023/09/18 17:25:38;;;;;;;0.93;0.40;;;;;;;20.72;94.71;153912.19;10501718;28;20090;-68
2023/09/18 17:30:39;;;;;;;0.68;0.40;;;;;;;20.44;99.86;153839.31;10502115;28;20033;-68
2023/09/18 17:35:45;;;;;;;0.68;0.40;;;;;;;20.52;98.64;153860.16;10503201;28;20060;-68
2023/09/18 17:40:47;;;;;;;1.53;0.60;;;;;;;20.38;100.00;153826.31;10504372;28;20046;-68
2023/09/18 17:45:48;;;;;;;0.70;0.50;;;;;;;20.23;100.00;153786.00;10505177;28;20144;-67
2023/09/18 17:50:50;;;;;;;1.17;0.60;;;;;;;20.12;100.00;153758.72;10502863;28;20036;-66
2023/09/18 17:55:52;;;;;;;1.08;0.70;;;;;;;20.23;100.00;153786.00;10501526;28;20048;-66
2023/09/18 18:00:56;;;;;;;1.38;0.80;;;;;;;20.06;100.00;153743.13;10501994;28;20116;-67
2023/09/18 18:05:58;;;;;;;1.38;0.80;;;;;;;20.05;100.00;153741.78;10503457;28;20044;-67
2023/09/18 18:11:00;;;;;;;1.33;0.60;;;;;;;19.86;100.00;153692.41;10502086;28;20040;-68
2023/09/18 18:16:04;;;;;;;0.68;0.60;;;;;;;19.79;100.00;153674.19;10501245;28;20093;-67
2023/09/18 18:21:07;;;;;;;2.28;0.70;;;;;;;19.73;100.00;153658.63;10500453;28;20040;-67
2023/09/18 18:26:10;;;;;;;1.08;0.68;;;;;;;19.75;100.00;153665.13;10500334;28;20043;-67
2023/09/18 18:31:12;;;;;;;1.13;0.70;;;;;;;19.67;100.00;153644.34;10503141;28;20081;-67
2023/09/18 18:36:13;;;;;;;1.67;0.60;;;;;;;19.50;100.00;153601.41;10500426;28;20055;-66
2023/09/18 18:41:15;;;;;;;1.25;0.60;;;;;;;19.53;100.00;153609.22;10500623;28;20047;-66
2023/09/18 18:46:17;;;;;;;1.30;0.65;;;;;;;19.49;100.00;153598.81;10499944;28;20102;-67
2023/09/18 18:51:20;;;;;;;1.23;0.60;;;;;;;19.39;100.00;153572.84;10503343;28;20076;-67
2023/09/18 18:56:22;;;;;;;0.95;0.50;;;;;;;19.20;100.00;153523.44;10500095;28;20040;-66
2023/09/18 19:01:24;;;;;;;0.70;0.55;;;;;;;19.21;100.00;153527.31;10500851;28;20048;-66
2023/09/18 19:06:27;;;;;;;1.00;0.70;;;;;;;19.13;100.00;153507.88;10502854;28;20048;-66
2023/09/18 19:11:29;;;;;;;1.17;0.60;;;;;;;19.17;100.00;153516.97;10510108;28;20480;-67
2023/09/18 19:16:31;;;;;;;0.60;0.60;;;;;;;19.06;100.00;153489.66;10507757;28;20120;-66
2023/09/18 19:21:34;;;;;;;0.57;0.40;;;;;;;19.11;100.00;153501.34;10507139;28;20052;-66
2023/09/18 19:26:35;;;;;;;0.50;0.40;;;;;;;18.87;100.00;153441.63;10507975;28;20045;-68
2023/09/18 19:31:37;;;;;;;0.70;0.40;;;;;;;18.98;100.00;153468.88;10508671;28;20037;-68
2023/09/18 19:36:39;;;;;;;0.88;0.40;;;;;;;19.01;100.00;153475.38;10511734;28;20460;-68
2023/09/18 19:41:41;;;;;;;1.23;0.55;;;;;;;19.09;100.00;153496.19;10506607;28;20052;-68
2023/09/18 19:46:42;;;;;;;0.55;0.50;;;;;;;18.95;100.00;153459.78;10506903;28;20052;-68
2023/09/18 19:51:44;;;;;;;1.00;0.43;;;;;;;18.91;100.00;153450.72;10506368;28;20045;-69
2023/09/18 19:56:46;;;;;;;1.25;0.60;;;;;;;18.86;100.00;153437.72;10508902;28;20109;-68
2023/09/18 20:01:48;;;;;;;0.93;0.43;;;;;;;18.83;100.00;153431.22;10507067;28;20516;-67
2023/09/18 20:06:53;;;;;;;0.60;0.38;;;;;;;18.71;100.00;153400.03;10505776;28;20093;-68
2023/09/18 20:11:54;;;;;;;1.30;0.80;;;;;;;18.49;100.00;153342.84;10505491;28;20051;-68
2023/09/18 20:16:56;;;;;;;0.75;0.50;;;;;;;18.37;100.00;153312.97;10505393;28;20443;-65
2023/09/18 20:22:01;;;;;;;1.17;0.45;;;;;;;18.26;100.00;153285.72;10508600;28;20563;-69
2023/09/18 20:27:03;;;;;;;0.40;0.40;;;;;;;18.24;100.00;153279.22;10505100;28;20059;-67
2023/09/18 20:32:05;;;;;;;0.55;0.52;;;;;;;18.37;100.00;153312.97;10503771;28;20423;-67
2023/09/18 20:37:08;;;;;;;0.38;0.38;;;;;;;18.59;100.00;153370.16;10515964;28;20160;-67
2023/09/18 20:42:10;;;;;;;0.93;0.60;;;;;;;18.43;100.00;153328.56;10507623;28;20044;-67
2023/09/18 20:47:11;;;;;;;0.80;0.60;;;;;;;18.49;100.00;153344.16;10503539;28;20041;-67
2023/09/18 20:52:13;;;;;;;0.68;0.52;;;;;;;18.20;100.00;153270.16;10485991;28;20135;-67
2023/09/18 20:57:15;;;;;;;0.50;0.38;;;;;;;18.42;100.00;153326.00;10504453;28;20040;-67
2023/09/18 21:02:18;;;;;;;1.35;0.60;;;;;;;18.18;100.00;153264.94;10505981;28;20523;-68
2023/09/18 21:07:20;;;;;;;0.52;0.40;;;;;;;17.93;100.00;153200.03;10502237;28;20047;-67
2023/09/18 21:12:23;;;;;;;0.35;0.35;;;;;;;17.92;100.00;153198.72;10503728;28;20115;-67
2023/09/18 21:17:24;;;;;;;0.60;0.45;;;;;;;17.98;100.00;153213.03;10501279;28;20041;-66
2023/09/18 21:22:26;;;;;;;0.40;0.40;;;;;;;17.94;100.00;153202.66;10502651;28;20409;-68
2023/09/18 21:27:28;;;;;;;0.50;0.40;;;;;;;17.70;100.00;153142.88;10503342;28;20049;-67
2023/09/18 21:32:30;;;;;;;1.02;0.68;;;;;;;17.73;100.00;153150.66;10501359;28;20416;-67
2023/09/18 21:37:32;;;;;;;0.77;0.55;;;;;;;17.70;100.00;153141.56;10500704;28;20044;-67
2023/09/18 21:42:34;;;;;;;0.55;0.43;;;;;;;17.75;100.00;153154.59;10501900;28;20123;-67
2023/09/18 21:47:35;;;;;;;7.55;0.65;;;;;;;17.72;100.00;153148.09;10503737;28;20098;-67
2023/09/18 21:52:38;;;;;;;0.88;0.50;;;;;;;17.66;100.00;153132.47;10500932;28;20512;-66
2023/09/18 21:57:39;;;;;;;0.38;0.38;;;;;;;17.61;100.00;153120.81;10500461;28;20036;-67
2023/09/18 22:02:41;;;;;;;0.50;0.50;;;;;;;17.58;100.00;153111.75;10499852;28;20109;-67
2023/09/18 22:07:43;;;;;;;0.70;0.40;;;;;;;17.38;100.00;153061.13;10500478;28;20123;-67
2023/09/18 22:12:44;;;;;;;0.47;0.47;;;;;;;17.57;100.00;153110.41;10501798;28;20083;-67
2023/09/18 22:17:48;;;;;;;0.70;0.45;;;;;;;17.51;100.00;153094.88;10499939;28;20036;-67
2023/09/18 22:22:50;;;;;;;0.55;0.40;;;;;;;17.45;100.00;153079.31;10498423;28;20114;-67
2023/09/18 22:27:53;;;;;;;0.50;0.43;;;;;;;17.47;100.00;153084.47;10499810;28;20040;-68
2023/09/18 22:32:55;;;;;;;0.90;0.60;;;;;;;17.39;100.00;153063.72;10500978;28;20127;-68
2023/09/18 22:38:14;;;;;;;0.57;0.40;;;;;;;17.27;100.00;153032.63;10498902;28;20075;-67
2023/09/18 22:43:53;;;;;;;0.45;0.40;;;;;;;17.08;100.00;152984.56;10507574;28;20095;-67
2023/09/18 22:49:33;;;;;;;0.82;0.50;;;;;;;17.24;100.00;153024.81;10505879;28;20063;-67
2023/09/18 22:54:46;;;;;;;1.27;0.80;;;;;;;16.98;100.00;152958.66;10510040;28;20052;-68
2023/09/18 22:59:49;;;;;;;0.40;0.38;;;;;;;17.20;100.00;153015.72;10505892;28;20470;-67
2023/09/18 23:04:51;;;;;;;0.65;0.40;;;;;;;17.20;100.00;153015.72;10506606;28;20394;-67
2023/09/18 23:09:57;;;;;;;1.73;0.60;;;;;;;17.20;100.00;153015.72;10506441;28;20072;-68